Time;durP1;ratioP1;P1;durP2;ratioP2;P2;SDS_P1;SDS_P2;PMS_P1;PMS_P2;Temp;Humidity;BMP_temperature;BMP_pressure;BME280_temperature;BME280_humidity;BME280_pressure;Samples;Min_cycle;Max_cycle;Signal;HPM_P1;HPM_P2
2023/08/08 00:11:05;;;;;;;4.72;0.52;;;19.20;76.00;;;;;;4954931;29;20480;-73
2023/08/08 00:14:28;;;;;;;1.88;0.40;;;19.20;76.00;;;;;;4954619;29;20044;-73
2023/08/08 00:16:57;;;;;;;;;;;19.20;76.20;;;;;;4954076;29;20036;-73
2023/08/08 00:19:23;;;;;;;2.70;0.52;;;19.20;76.30;;;;;;4954797;28;20355;-73
2023/08/08 00:21:49;;;;;;;2.28;0.70;;;19.20;76.60;;;;;;5083170;28;20394;-73
2023/08/08 00:24:15;;;;;;;2.40;0.55;;;19.10;76.60;;;;;;5094851;28;20043;-73
2023/08/08 00:26:41;;;;;;;2.28;0.40;;;19.10;76.80;;;;;;5095085;28;20028;-74
2023/08/08 00:29:07;;;;;;;1.63;0.50;;;19.10;76.90;;;;;;5094889;28;20028;-74
2023/08/08 00:31:33;;;;;;;2.42;0.38;;;19.10;77.30;;;;;;5095095;28;20032;-73
2023/08/08 00:33:58;;;;;;;1.67;0.50;;;19.10;77.30;;;;;;5094693;28;20485;-74
2023/08/08 00:36:24;;;;;;;5.22;0.70;;;19.00;77.40;;;;;;5094704;28;20031;-73
2023/08/08 00:38:50;;;;;;;2.05;0.60;;;19.00;77.50;;;;;;5094962;28;20074;-73
2023/08/08 00:41:16;;;;;;;3.47;0.60;;;19.00;77.50;;;;;;5094775;28;20111;-74
2023/08/08 00:43:43;;;;;;;1.25;0.47;;;19.00;77.60;;;;;;5093359;28;20055;-74
2023/08/08 00:46:09;;;;;;;2.20;0.50;;;19.00;77.80;;;;;;5094384;28;20048;-74
2023/08/08 00:48:35;;;;;;;1.00;0.50;;;19.00;77.90;;;;;;5094736;28;20020;-73
2023/08/08 00:51:01;;;;;;;0.60;0.50;;;19.00;78.00;;;;;;5094628;28;20035;-74
2023/08/08 00:53:31;;;;;;;9.15;0.65;;;18.90;78.20;;;;;;5094641;28;20012;-73
2023/08/08 00:55:57;;;;;;;0.60;0.40;;;19.00;78.20;;;;;;5093776;28;20115;-73
2023/08/08 00:58:24;;;;;;;2.75;0.52;;;18.90;78.30;;;;;;5092484;28;20039;-74
2023/08/08 01:00:52;;;;;;;2.45;0.80;;;18.80;78.60;;;;;;5091522;28;20039;-73
2023/08/08 01:03:18;;;;;;;2.80;0.90;;;18.80;78.80;;;;;;5090038;28;20493;-73
2023/08/08 01:05:55;;;;;;;3.08;0.60;;;18.80;78.90;;;;;;5092139;28;20040;-73
2023/08/08 01:08:27;;;;;;;3.97;0.88;;;18.80;79.10;;;;;;5094044;28;20022;-73
2023/08/08 01:10:53;;;;;;;0.70;0.50;;;18.70;79.50;;;;;;5094163;28;20085;-73
2023/08/08 01:13:23;;;;;;;1.27;0.70;;;18.70;79.90;;;;;;5094016;28;20020;-73
2023/08/08 01:15:50;;;;;;;4.45;0.63;;;18.70;79.90;;;;;;5094005;28;20142;-73
2023/08/08 01:18:16;;;;;;;5.72;1.33;;;18.60;79.90;;;;;;5092973;28;20016;-74
2023/08/08 01:20:47;;;;;;;2.88;0.63;;;18.60;80.10;;;;;;5093974;28;20035;-73
2023/08/08 01:23:19;;;;;;;3.42;0.80;;;18.60;80.20;;;;;;5093243;28;20449;-73
2023/08/08 01:25:48;;;;;;;2.65;0.80;;;18.60;80.40;;;;;;5093904;28;20040;-74
2023/08/08 01:28:31;;;;;;;1.88;0.60;;;18.60;80.50;;;;;;5093949;28;20020;-73
2023/08/08 01:35:46;;;;;;;;;;;;;;;;;;;;;
2023/08/08 01:38:43;;;;;;;2.00;0.57;;;18.60;80.00;;;;;;4998822;28;20045;-73
2023/08/08 01:41:19;;;;;;;1.60;0.50;;;18.60;79.90;;;;;;5011195;28;20121;-73
2023/08/08 01:44:39;;;;;;;;;;;;;;;;;;;;;
2023/08/08 01:46:55;;;;;;;3.65;0.80;;;18.60;80.10;;;;;;5088332;28;20079;-73
2023/08/08 01:50:01;;;;;;;1.38;0.50;;;18.50;80.30;;;;;;5093509;28;20031;-72
2023/08/08 01:55:41;;;;;;;0.80;0.50;;;18.50;80.90;;;;;;5079040;28;20397;-73
2023/08/08 01:58:07;;;;;;;2.60;0.70;;;18.50;81.10;;;;;;5093429;28;20393;-72
2023/08/08 02:00:33;;;;;;;2.60;0.60;;;18.50;81.20;;;;;;5093148;28;20385;-72
2023/08/08 02:02:59;;;;;;;5.00;0.65;;;18.40;81.50;;;;;;5093155;28;20024;-73
2023/08/08 02:05:25;;;;;;;1.50;0.65;;;18.40;81.70;;;;;;5091950;28;20036;-73
2023/08/08 02:07:50;;;;;;;1.88;0.57;;;18.40;81.80;;;;;;5093049;28;20069;-73
2023/08/08 02:10:16;;;;;;;3.05;1.02;;;18.40;81.70;;;;;;5093105;28;20119;-73
2023/08/08 02:12:42;;;;;;;2.00;0.57;;;18.40;81.70;;;;;;5092962;28;20024;-73
2023/08/08 02:15:08;;;;;;;3.60;1.10;;;18.40;82.00;;;;;;5092958;28;20024;-72
2023/08/08 02:17:34;;;;;;;1.67;0.70;;;18.30;82.00;;;;;;5092911;28;20024;-73
2023/08/08 02:20:00;;;;;;;0.85;0.50;;;18.40;82.10;;;;;;5093002;28;20020;-72
2023/08/08 02:22:25;;;;;;;2.33;0.60;;;18.30;82.00;;;;;;5092147;28;20043;-73
2023/08/08 02:24:51;;;;;;;2.20;0.68;;;18.30;82.20;;;;;;5092738;28;20116;-73
2023/08/08 02:27:17;;;;;;;4.88;0.60;;;18.40;82.20;;;;;;5093153;28;20053;-73
2023/08/08 02:29:43;;;;;;;3.22;0.47;;;18.30;82.10;;;;;;5092703;28;20028;-73
2023/08/08 02:32:08;;;;;;;0.95;0.63;;;18.30;82.30;;;;;;5092634;28;20028;-73
2023/08/08 02:34:34;;;;;;;2.38;0.70;;;18.30;82.30;;;;;;5092620;28;20043;-73
2023/08/08 02:37:00;;;;;;;2.50;0.47;;;18.20;83.00;;;;;;5092428;28;20032;-72
2023/08/08 02:39:25;;;;;;;2.50;0.65;;;18.20;82.70;;;;;;5092999;28;20094;-72
2023/08/08 02:41:51;;;;;;;6.93;0.93;;;18.20;82.80;;;;;;5092810;28;20020;-72
2023/08/08 02:44:19;;;;;;;4.53;0.55;;;18.20;82.50;;;;;;5092861;28;20104;-72
2023/08/08 02:46:45;;;;;;;1.50;0.40;;;18.10;82.50;;;;;;5092483;28;20521;-72
2023/08/08 02:49:10;;;;;;;2.80;0.50;;;18.10;82.50;;;;;;5092414;28;20017;-73
2023/08/08 02:51:36;;;;;;;1.90;0.57;;;18.10;82.30;;;;;;5092474;28;20024;-72
2023/08/08 02:54:02;;;;;;;6.25;0.60;;;18.10;82.20;;;;;;5092566;28;20020;-72
2023/08/08 02:56:28;;;;;;;1.30;0.50;;;18.10;82.90;;;;;;5092656;28;20131;-73
2023/08/08 02:58:54;;;;;;;2.10;0.65;;;18.10;82.40;;;;;;5093314;28;20032;-73
2023/08/08 03:01:21;;;;;;;1.25;0.60;;;18.00;82.80;;;;;;5093164;28;20024;-73
2023/08/08 03:03:47;;;;;;;2.63;0.60;;;18.00;82.90;;;;;;5093059;28;20035;-73
2023/08/08 03:06:13;;;;;;;2.17;0.68;;;17.90;82.80;;;;;;5093171;28;20047;-73
2023/08/08 03:08:43;;;;;;;1.20;0.60;;;17.90;83.20;;;;;;5092848;28;20032;-74
2023/08/08 03:21:42;;;;;;;5.15;0.60;;;17.80;82.80;;;;;;5050501;28;20036;-73
2023/08/08 03:28:06;;;;;;;2.78;0.50;;;17.80;82.90;;;;;;4858375;29;20096;-74
2023/08/08 03:30:32;;;;;;;2.60;0.68;;;17.70;83.20;;;;;;4827041;29;20080;-73
2023/08/08 03:33:47;;;;;;;1.60;0.50;;;17.70;83.20;;;;;;4933168;29;20549;-73
2023/08/08 03:36:14;;;;;;;1.73;0.80;;;17.70;83.20;;;;;;4933034;29;20038;-73
2023/08/08 03:38:44;;;;;;;3.17;0.68;;;17.60;83.10;;;;;;4959543;28;20109;-73
2023/08/08 03:41:10;;;;;;;2.00;0.68;;;17.70;83.00;;;;;;5041764;28;20048;-74
2023/08/08 03:43:36;;;;;;;0.95;0.50;;;17.60;83.00;;;;;;5075577;28;20101;-74
2023/08/08 03:46:02;;;;;;;1.55;0.50;;;17.70;82.90;;;;;;5075482;28;20505;-73
2023/08/08 03:48:27;;;;;;;3.75;0.60;;;17.60;82.50;;;;;;5075614;28;20063;-73
2023/08/08 03:50:53;;;;;;;1.73;0.70;;;17.60;82.60;;;;;;5075520;28;20032;-74
2023/08/08 03:53:19;;;;;;;1.42;0.43;;;17.60;82.70;;;;;;5074219;28;20056;-73
2023/08/08 03:55:45;;;;;;;1.55;0.57;;;17.60;82.80;;;;;;5075280;28;20017;-73
2023/08/08 03:58:11;;;;;;;1.35;0.52;;;17.60;82.70;;;;;;5075101;28;20071;-74
2023/08/08 04:00:39;;;;;;;4.45;1.40;;;17.60;82.70;;;;;;5075286;28;20031;-73
2023/08/08 04:03:05;;;;;;;1.48;0.52;;;17.60;82.90;;;;;;5074918;28;20035;-74
2023/08/08 04:05:30;;;;;;;3.40;0.60;;;17.60;82.70;;;;;;5075480;28;20033;-74
2023/08/08 04:07:56;;;;;;;3.97;0.80;;;17.60;82.60;;;;;;5075232;28;20025;-75
2023/08/08 04:10:22;;;;;;;1.65;0.50;;;17.60;82.50;;;;;;5090921;28;20020;-73
2023/08/08 04:12:48;;;;;;;3.53;0.50;;;17.60;82.40;;;;;;5075041;28;20020;-73
2023/08/08 04:15:13;;;;;;;4.55;0.68;;;17.60;82.40;;;;;;5075297;28;20028;-74
2023/08/08 04:17:39;;;;;;;5.18;0.85;;;17.60;82.20;;;;;;5075347;28;20109;-74
2023/08/08 04:20:06;;;;;;;1.10;0.50;;;17.60;82.00;;;;;;5075039;28;20043;-74
2023/08/08 04:22:32;;;;;;;3.10;0.70;;;17.60;82.40;;;;;;5075130;28;20028;-73
2023/08/08 04:24:58;;;;;;;3.85;0.68;;;17.60;82.40;;;;;;5074929;28;20107;-74
2023/08/08 04:27:23;;;;;;;3.53;0.70;;;17.60;82.40;;;;;;5075207;28;20024;-74
2023/08/08 04:29:49;;;;;;;2.85;0.60;;;17.60;82.40;;;;;;5075028;28;20052;-74
2023/08/08 04:32:15;;;;;;;0.52;0.40;;;17.60;82.30;;;;;;5089114;28;20028;-74
2023/08/08 04:34:41;;;;;;;0.68;0.50;;;17.60;81.60;;;;;;5095069;28;20098;-73
2023/08/08 04:37:07;;;;;;;1.10;0.47;;;17.60;81.20;;;;;;5094912;28;20032;-71
2023/08/08 04:39:33;;;;;;;3.83;0.52;;;17.60;81.40;;;;;;5095243;28;20096;-73
2023/08/08 04:41:58;;;;;;;0.93;0.43;;;17.60;81.40;;;;;;5094637;28;20099;-73
2023/08/08 04:44:24;;;;;;;2.08;0.60;;;17.60;81.60;;;;;;5093906;28;20028;-73
2023/08/08 04:46:50;;;;;;;1.85;0.40;;;17.60;81.90;;;;;;5094719;28;20048;-73
2023/08/08 04:50:25;;;;;;;4.28;0.90;;;17.60;82.00;;;;;;5094992;28;20513;-71
2023/08/08 04:53:56;;;;;;;3.42;0.63;;;17.60;82.30;;;;;;5052457;28;20029;-72
2023/08/08 04:56:40;;;;;;;1.73;0.60;;;17.60;82.20;;;;;;5044900;28;20035;-72
2023/08/08 05:09:13;;;;;;;2.17;0.80;;;17.70;82.80;;;;;;4951812;29;20038;-72
2023/08/08 05:15:09;;;;;;;6.25;0.75;;;17.70;83.00;;;;;;4920790;29;20043;-72
2023/08/08 05:17:36;;;;;;;1.13;0.50;;;17.80;83.10;;;;;;4953748;29;20039;-72
2023/08/08 05:20:03;;;;;;;2.90;0.60;;;17.80;82.80;;;;;;5009433;28;20426;-73
2023/08/08 05:22:29;;;;;;;2.05;0.80;;;17.90;82.90;;;;;;5085683;28;20375;-72
2023/08/08 05:24:54;;;;;;;3.70;0.90;;;17.90;82.50;;;;;;5094181;28;20028;-72
2023/08/08 05:27:20;;;;;;;1.25;0.60;;;18.00;82.10;;;;;;5094169;28;20020;-72
2023/08/08 05:29:46;;;;;;;2.40;0.82;;;18.00;82.00;;;;;;5093966;28;20020;-71
2023/08/08 05:32:12;;;;;;;7.70;0.80;;;18.00;81.90;;;;;;5092817;28;20020;-71
2023/08/08 05:34:38;;;;;;;0.85;0.60;;;18.10;81.60;;;;;;5094089;28;20031;-71
2023/08/08 05:37:04;;;;;;;2.05;0.65;;;18.10;81.60;;;;;;5093796;28;20028;-72
2023/08/08 05:39:30;;;;;;;3.58;0.60;;;18.10;81.20;;;;;;5094005;28;20031;-72
2023/08/08 05:41:56;;;;;;;0.68;0.43;;;18.10;80.80;;;;;;5093685;28;20112;-72
2023/08/08 05:44:22;;;;;;;2.55;0.55;;;18.20;80.70;;;;;;5092223;28;20032;-72
2023/08/08 05:46:48;;;;;;;2.83;1.40;;;18.20;80.80;;;;;;5093641;28;20040;-72
2023/08/08 05:49:14;;;;;;;1.15;0.80;;;18.20;80.60;;;;;;5093731;28;20031;-71
2023/08/08 05:51:40;;;;;;;1.50;0.70;;;18.20;80.50;;;;;;5093628;28;20031;-72
2023/08/08 05:54:06;;;;;;;4.38;0.80;;;18.20;80.30;;;;;;5093885;28;20507;-72
2023/08/08 05:56:36;;;;;;;4.85;0.93;;;18.30;80.40;;;;;;5093103;28;20071;-72
2023/08/08 05:59:02;;;;;;;3.70;0.90;;;18.20;80.60;;;;;;5092970;28;20443;-72
2023/08/08 06:01:28;;;;;;;2.40;0.60;;;18.30;80.70;;;;;;5093411;28;20031;-72
2023/08/08 06:03:54;;;;;;;2.97;0.60;;;18.30;80.70;;;;;;5092803;28;20034;-71
2023/08/08 06:06:20;;;;;;;2.60;0.63;;;18.30;80.20;;;;;;5093455;28;20107;-72
2023/08/08 06:08:46;;;;;;;0.80;0.50;;;18.40;80.10;;;;;;5092646;28;20089;-72
2023/08/08 06:11:12;;;;;;;3.70;0.75;;;18.50;80.10;;;;;;5093078;28;20024;-72
2023/08/08 06:13:38;;;;;;;3.10;0.63;;;18.50;80.40;;;;;;5093001;28;20031;-72
2023/08/08 06:16:06;;;;;;;2.63;0.85;;;18.50;80.40;;;;;;5091519;28;20028;-73
2023/08/08 06:18:35;;;;;;;2.03;0.70;;;18.50;80.50;;;;;;5092780;28;20051;-72
2023/08/08 06:21:01;;;;;;;2.45;0.80;;;18.50;80.50;;;;;;5093364;28;20054;-72
2023/08/08 06:23:27;;;;;;;4.88;0.70;;;18.60;80.40;;;;;;5091078;28;20020;-72
2023/08/08 06:25:54;;;;;;;1.63;0.70;;;18.60;80.40;;;;;;5093232;28;20051;-72
2023/08/08 06:28:20;;;;;;;3.03;0.80;;;18.60;80.10;;;;;;5092775;28;20032;-72
2023/08/08 06:30:52;;;;;;;1.00;0.60;;;18.70;79.90;;;;;;5092592;28;20529;-73
2023/08/08 06:33:45;;;;;;;2.63;0.75;;;18.70;79.90;;;;;;5089852;28;20253;-72
2023/08/08 06:36:20;;;;;;;2.25;0.60;;;18.80;79.50;;;;;;5092268;28;20107;-73
2023/08/08 06:38:46;;;;;;;3.63;0.70;;;18.80;79.00;;;;;;5090307;28;20111;-73
2023/08/08 06:41:14;;;;;;;4.30;0.80;;;18.90;79.10;;;;;;5092812;28;20056;-72
2023/08/08 06:43:40;;;;;;;1.70;0.52;;;18.90;79.10;;;;;;5092981;28;20394;-72
2023/08/08 06:46:06;;;;;;;1.15;0.55;;;18.90;78.60;;;;;;5092365;28;20048;-72
2023/08/08 06:48:32;;;;;;;0.77;0.40;;;19.00;78.20;;;;;;5092448;28;20016;-72
2023/08/08 06:50:58;;;;;;;3.80;0.60;;;19.00;78.60;;;;;;5092422;28;20027;-72
2023/08/08 06:53:27;;;;;;;1.88;1.02;;;19.10;78.90;;;;;;5092537;28;20469;-72
2023/08/08 06:56:13;;;;;;;2.78;0.52;;;19.10;78.70;;;;;;5092190;28;20077;-73
2023/08/08 06:58:57;;;;;;;2.17;0.50;;;19.20;79.00;;;;;;5092244;28;20413;-72
2023/08/08 07:01:23;;;;;;;1.83;0.60;;;19.20;79.10;;;;;;5092650;28;20115;-73
2023/08/08 07:03:49;;;;;;;4.13;1.05;;;19.20;79.10;;;;;;5090659;28;20453;-74
2023/08/08 07:06:17;;;;;;;3.60;0.77;;;19.20;78.90;;;;;;5092912;28;20062;-73
2023/08/08 07:08:43;;;;;;;2.10;0.77;;;19.30;78.90;;;;;;5092724;28;20024;-73
2023/08/08 07:11:09;;;;;;;4.45;0.70;;;19.30;78.90;;;;;;5092443;28;20032;-73
2023/08/08 07:13:35;;;;;;;2.03;0.80;;;19.40;79.00;;;;;;5092476;28;20031;-74
2023/08/08 07:16:01;;;;;;;2.22;0.70;;;19.40;79.30;;;;;;5092034;28;20031;-75
2023/08/08 07:18:26;;;;;;;7.38;0.70;;;19.40;79.00;;;;;;5096548;28;20020;-74
2023/08/08 07:20:52;;;;;;;4.70;1.00;;;19.40;79.10;;;;;;5096552;28;20024;-76
2023/08/08 07:23:19;;;;;;;2.90;0.60;;;19.40;79.20;;;;;;5096816;28;20016;-74
2023/08/08 07:25:46;;;;;;;4.47;0.60;;;19.50;79.40;;;;;;5095729;28;20499;-71
2023/08/08 07:28:14;;;;;;;0.98;0.50;;;19.50;79.70;;;;;;5091672;28;20030;-78
2023/08/08 07:30:40;;;;;;;6.25;0.90;;;19.50;80.10;;;;;;5091232;28;20028;-72
2023/08/08 07:33:08;;;;;;;1.40;0.80;;;19.50;80.70;;;;;;5092050;28;20680;-72
2023/08/08 07:35:34;;;;;;;1.17;0.60;;;19.60;79.80;;;;;;5094567;28;20016;-70
2023/08/08 07:38:00;;;;;;;1.95;0.75;;;19.70;78.90;;;;;;5095111;28;20056;-71
2023/08/08 07:40:26;;;;;;;3.03;0.60;;;19.70;78.90;;;;;;5095307;28;20055;-71
2023/08/08 07:42:52;;;;;;;1.95;0.70;;;19.80;78.40;;;;;;5095367;28;20024;-71
2023/08/08 07:45:18;;;;;;;1.67;0.63;;;19.80;77.80;;;;;;5095230;28;20039;-72
2023/08/08 07:47:44;;;;;;;1.23;0.80;;;19.90;77.30;;;;;;5095104;28;20048;-72
2023/08/08 07:50:11;;;;;;;1.60;0.50;;;20.00;78.10;;;;;;5095183;28;20027;-73
2023/08/08 07:52:37;;;;;;;0.52;0.50;;;20.00;78.10;;;;;;5095136;28;20020;-71
2023/08/08 07:55:04;;;;;;;1.60;0.70;;;20.00;77.30;;;;;;5095488;28;20153;-70
2023/08/08 07:57:33;;;;;;;1.17;0.52;;;20.10;77.30;;;;;;5095647;28;20024;-71
2023/08/08 08:00:00;;;;;;;2.05;0.50;;;20.10;77.10;;;;;;5096002;28;20027;-71
2023/08/08 08:02:26;;;;;;;2.67;0.60;;;20.10;77.30;;;;;;5096067;28;20024;-71
2023/08/08 08:04:55;;;;;;;0.80;0.50;;;20.10;77.20;;;;;;5096077;28;20107;-72
2023/08/08 08:07:56;;;;;;;0.75;0.60;;;20.20;76.80;;;;;;5095468;28;20401;-71
2023/08/08 08:17:14;;;;;;;1.83;0.40;;;20.30;77.00;;;;;;5053386;28;20028;-74
2023/08/08 08:22:53;;;;;;;0.65;0.40;;;20.40;76.20;;;;;;4954613;29;20046;-75
2023/08/08 08:29:25;;;;;;;0.60;0.50;;;20.50;75.90;;;;;;4917291;29;20096;-74
2023/08/08 08:32:02;;;;;;;3.33;0.80;;;20.50;75.60;;;;;;4954345;29;20035;-74
2023/08/08 08:34:28;;;;;;;2.75;0.50;;;20.60;75.70;;;;;;4986546;28;20053;-73
2023/08/08 08:36:54;;;;;;;2.35;0.50;;;20.60;75.40;;;;;;5012786;28;20030;-76
2023/08/08 08:39:20;;;;;;;0.90;0.50;;;20.60;75.40;;;;;;5031751;28;20501;-76
2023/08/08 08:41:49;;;;;;;5.38;1.20;;;20.60;76.40;;;;;;5094932;28;20111;-76
2023/08/08 08:44:20;;;;;;;1.65;0.40;;;20.60;76.80;;;;;;5094457;28;20035;-78
2023/08/08 08:46:48;;;;;;;0.47;0.47;;;20.70;76.40;;;;;;5094509;28;20044;-74
2023/08/08 08:49:17;;;;;;;0.75;0.50;;;20.70;76.20;;;;;;5094512;28;20051;-72
2023/08/08 08:51:43;;;;;;;0.50;0.50;;;20.70;75.10;;;;;;5093391;28;20031;-73
2023/08/08 08:54:10;;;;;;;3.40;0.65;;;20.70;74.20;;;;;;5090191;28;20030;-70
2023/08/08 08:56:36;;;;;;;1.65;0.47;;;20.80;74.70;;;;;;5091284;28;20393;-71
2023/08/08 08:59:02;;;;;;;3.05;0.60;;;;;;;;;;5092963;28;20103;-76
2023/08/08 09:01:28;;;;;;;1.50;0.50;;;20.90;75.20;;;;;;5094772;28;20424;-73
2023/08/08 09:03:55;;;;;;;1.95;0.50;;;21.00;76.00;;;;;;5094048;28;20077;-72
2023/08/08 09:06:23;;;;;;;0.90;0.47;;;21.10;75.30;;;;;;5094210;28;20466;-75
2023/08/08 09:08:49;;;;;;;1.27;0.50;;;21.20;74.70;;;;;;5093905;28;20545;-75
2023/08/08 09:11:14;;;;;;;0.65;0.50;;;21.20;73.80;;;;;;5093800;28;20112;-72
2023/08/08 09:13:41;;;;;;;0.95;0.63;;;21.30;73.50;;;;;;5094036;28;20016;-77
2023/08/08 09:16:08;;;;;;;2.72;1.30;;;21.40;72.70;;;;;;5093841;28;20024;-74
2023/08/08 09:18:38;;;;;;;2.13;0.90;;;21.50;71.40;;;;;;5093939;28;20031;-75
2023/08/08 09:21:04;;;;;;;1.85;0.90;;;21.50;71.20;;;;;;5094010;28;20119;-74
2023/08/08 09:23:30;;;;;;;1.15;0.82;;;21.60;71.90;;;;;;5093875;28;20481;-73
2023/08/08 09:25:56;;;;;;;3.83;1.67;;;21.70;72.80;;;;;;5093989;28;20174;-74
2023/08/08 09:28:22;;;;;;;13.27;5.35;;;21.80;72.90;;;;;;5094036;28;20020;-73
2023/08/08 09:30:48;;;;;;;1.10;0.70;;;21.80;72.20;;;;;;5092464;28;20468;-73
2023/08/08 09:33:14;;;;;;;0.43;0.40;;;21.90;72.00;;;;;;5093736;28;20095;-76
2023/08/08 09:35:40;;;;;;;1.38;0.50;;;21.90;71.30;;;;;;5094398;28;20103;-74
2023/08/08 09:38:06;;;;;;;0.70;0.60;;;21.90;68.00;;;;;;5094064;28;20024;-75
2023/08/08 09:40:32;;;;;;;0.88;0.52;;;21.80;67.30;;;;;;5093735;28;20028;-75
2023/08/08 09:43:01;;;;;;;0.98;0.50;;;21.80;68.00;;;;;;5092796;28;20111;-76
2023/08/08 09:45:35;;;;;;;1.58;0.90;;;21.80;68.20;;;;;;5094043;28;20417;-74
2023/08/08 09:58:44;;;;;;;2.38;0.47;;;21.90;66.00;;;;;;5050065;28;20033;-72
2023/08/08 10:01:45;;;;;;;0.57;0.50;;;22.00;64.60;;;;;;5005284;28;20399;-72
2023/08/08 10:07:40;;;;;;;0.73;0.52;;;22.20;64.00;;;;;;4922728;28;20074;-73
2023/08/08 10:10:48;;;;;;;0.32;0.32;;;22.20;64.60;;;;;;4997132;28;20040;-73
2023/08/08 10:13:25;;;;;;;0.57;0.40;;;22.10;63.90;;;;;;4980495;28;20463;-74
2023/08/08 10:15:51;;;;;;;0.50;0.50;;;22.10;63.60;;;;;;5052106;28;20382;-74
2023/08/08 10:18:21;;;;;;;0.70;0.43;;;22.20;61.70;;;;;;5093573;28;20028;-75
2023/08/08 10:20:48;;;;;;;1.15;0.68;;;22.10;60.60;;;;;;5093525;28;20103;-75
2023/08/08 10:23:20;;;;;;;1.38;0.82;;;22.10;60.30;;;;;;5093107;28;20385;-75
2023/08/08 10:25:46;;;;;;;;;;;22.20;59.30;;;;;;5093626;28;20450;-75
2023/08/08 10:28:16;;;;;;;1.05;0.73;;;22.10;59.70;;;;;;5093301;28;19927;-74
2023/08/08 10:30:46;;;;;;;0.80;0.80;;;22.10;59.50;;;;;;5092728;28;20016;-74
2023/08/08 10:33:22;;;;;;;0.88;0.60;;;22.10;60.00;;;;;;5092920;28;20070;-73
2023/08/08 10:36:04;;;;;;;0.95;0.60;;;22.10;58.10;;;;;;5093119;28;20478;-73
2023/08/08 10:38:43;;;;;;;0.43;0.40;;;22.20;58.00;;;;;;5093139;28;20024;-73
2023/08/08 10:41:14;;;;;;;0.75;0.60;;;22.20;58.40;;;;;;5092934;28;20020;-74
2023/08/08 10:43:54;;;;;;;0.43;0.43;;;22.20;58.70;;;;;;5092525;28;20028;-76
2023/08/08 10:46:26;;;;;;;1.00;0.60;;;22.20;59.80;;;;;;5092607;28;20127;-76
2023/08/08 10:48:54;;;;;;;0.63;0.60;;;22.20;61.80;;;;;;5093104;28;20016;-76
2023/08/08 10:51:19;;;;;;;0.70;0.60;;;22.20;60.90;;;;;;5095002;28;20052;-76
2023/08/08 10:53:46;;;;;;;0.50;0.50;;;22.30;58.40;;;;;;5097001;28;20070;-76
2023/08/08 10:56:14;;;;;;;0.60;0.50;;;22.30;58.80;;;;;;5096756;28;20028;-75
2023/08/08 10:58:42;;;;;;;0.77;0.50;;;22.30;56.80;;;;;;5096812;28;20496;-75
2023/08/08 11:01:09;;;;;;;1.23;0.50;;;22.40;56.80;;;;;;5096855;28;20020;-74
2023/08/08 11:03:40;;;;;;;0.60;0.60;;;22.40;58.40;;;;;;5095146;28;20027;-74
2023/08/08 11:06:10;;;;;;;0.93;0.50;;;22.50;59.20;;;;;;5096921;28;20603;-74
2023/08/08 11:08:40;;;;;;;0.80;0.50;;;22.50;59.90;;;;;;5096745;28;20020;-74
2023/08/08 11:11:06;;;;;;;0.70;0.60;;;22.60;61.30;;;;;;5096512;28;20501;-74
2023/08/08 11:13:32;;;;;;;1.88;0.50;;;22.70;60.20;;;;;;5096682;28;20027;-74
2023/08/08 11:16:01;;;;;;;0.60;0.50;;;22.70;60.30;;;;;;5096936;28;20024;-76
2023/08/08 11:18:27;;;;;;;0.88;0.55;;;22.70;60.80;;;;;;5097394;28;20024;-74
2023/08/08 11:20:54;;;;;;;3.05;0.60;;;22.80;61.70;;;;;;5097319;28;20385;-76
2023/08/08 11:23:23;;;;;;;0.73;0.63;;;22.80;60.40;;;;;;5097308;28;20028;-77
2023/08/08 11:40:05;;;;;;;0.73;0.50;;;22.70;56.60;;;;;;5054300;28;20163;-76
2023/08/08 11:42:33;;;;;;;2.45;0.60;;;22.70;55.90;;;;;;5053955;28;20035;-77
2023/08/08 11:44:59;;;;;;;2.40;0.85;;;22.60;56.50;;;;;;5053838;28;20095;-76
2023/08/08 11:51:05;;;;;;;0.68;0.50;;;22.60;57.30;;;;;;5053226;28;20478;-78
2023/08/08 11:53:31;;;;;;;2.85;0.60;;;22.60;57.30;;;;;;5087303;28;20070;-77
2023/08/08 11:55:59;;;;;;;1.90;0.73;;;22.60;57.50;;;;;;5095834;28;20378;-74
2023/08/08 11:58:26;;;;;;;2.15;0.60;;;22.60;56.90;;;;;;5095723;28;20081;-75
2023/08/08 12:00:54;;;;;;;11.05;4.53;;;22.60;57.80;;;;;;5095746;28;20107;-73
2023/08/08 12:03:20;;;;;;;6.05;2.83;;;22.70;59.00;;;;;;5095145;28;20024;-75
2023/08/08 12:05:47;;;;;;;4.03;1.00;;;22.80;59.00;;;;;;5095455;28;20114;-75
2023/08/08 12:08:14;;;;;;;1.13;0.70;;;22.80;58.70;;;;;;5094183;28;20423;-75
2023/08/08 12:10:39;;;;;;;4.70;1.00;;;22.80;60.80;;;;;;5095526;28;20016;-75
2023/08/08 12:13:09;;;;;;;2.00;1.00;;;22.90;60.50;;;;;;5095598;28;20153;-75
2023/08/08 12:15:36;;;;;;;5.20;0.90;;;22.90;60.50;;;;;;5095389;28;20477;-73
2023/08/08 12:18:03;;;;;;;1.45;0.90;;;22.90;59.70;;;;;;5095472;28;20061;-74
2023/08/08 12:20:29;;;;;;;1.75;1.27;;;23.00;60.30;;;;;;5095249;28;20062;-74
2023/08/08 12:22:55;;;;;;;5.32;2.65;;;23.10;61.70;;;;;;5094002;28;20103;-73
2023/08/08 12:25:22;;;;;;;1.98;1.25;;;23.20;62.10;;;;;;5095072;28;20504;-74
2023/08/08 12:27:48;;;;;;;1.83;1.10;;;23.20;62.40;;;;;;5095389;28;20024;-74
2023/08/08 12:30:13;;;;;;;1.33;0.90;;;23.30;62.80;;;;;;5095220;28;20093;-72
2023/08/08 12:32:39;;;;;;;3.97;1.75;;;23.40;62.10;;;;;;5094857;28;20021;-73
2023/08/08 12:35:06;;;;;;;0.70;0.50;;;23.40;62.20;;;;;;5094929;28;20019;-72
2023/08/08 12:37:32;;;;;;;7.03;3.50;;;23.40;59.00;;;;;;5094981;28;20035;-73
2023/08/08 12:39:58;;;;;;;5.40;2.40;;;23.30;59.90;;;;;;5094764;28;20056;-73
2023/08/08 12:42:24;;;;;;;1.70;0.80;;;23.30;60.20;;;;;;5095127;28;20090;-72
2023/08/08 12:44:52;;;;;;;1.95;0.75;;;23.40;59.80;;;;;;5094494;28;20115;-73
2023/08/08 12:47:19;;;;;;;2.55;0.73;;;23.50;61.10;;;;;;5094548;28;20504;-73
2023/08/08 12:49:45;;;;;;;1.17;0.77;;;23.50;61.00;;;;;;5094969;28;20024;-74
2023/08/08 12:52:11;;;;;;;2.78;0.90;;;23.60;61.80;;;;;;5095536;28;20565;-74
2023/08/08 12:54:36;;;;;;;1.52;0.65;;;23.70;63.20;;;;;;5095283;28;20025;-73
2023/08/08 12:57:03;;;;;;;13.15;2.75;;;23.70;61.90;;;;;;5095310;28;20021;-73
2023/08/08 12:59:29;;;;;;;2.00;1.00;;;23.80;61.60;;;;;;5094856;28;20024;-75
2023/08/08 13:02:31;;;;;;;1.92;1.27;;;23.90;61.10;;;;;;5095145;28;20031;-74
2023/08/08 13:05:19;;;;;;;;;;;23.90;59.90;;;;;;5095333;28;20374;-75
2023/08/08 13:11:39;;;;;;;1.58;0.68;;;24.10;57.70;;;;;;5052556;28;20601;-73
2023/08/08 13:21:20;;;;;;;1.23;0.82;;;24.30;57.20;;;;;;5032298;28;20044;-72
2023/08/08 13:27:36;;;;;;;1.75;0.60;;;24.30;57.20;;;;;;5072049;28;20047;-72
2023/08/08 13:30:03;;;;;;;2.08;1.27;;;24.40;57.80;;;;;;5054939;28;20421;-73
2023/08/08 13:32:29;;;;;;;7.90;5.93;;;24.40;60.00;;;;;;5088550;28;20397;-73
2023/08/08 13:34:55;;;;;;;2.55;0.88;;;24.40;62.00;;;;;;5093560;28;20024;-72
2023/08/08 13:37:20;;;;;;;1.77;1.00;;;24.50;59.80;;;;;;5092475;28;20024;-74
2023/08/08 13:39:46;;;;;;;0.88;0.50;;;24.50;59.90;;;;;;5093894;28;20051;-73
2023/08/08 13:42:13;;;;;;;1.80;0.60;;;24.60;59.90;;;;;;5093860;28;20028;-73
2023/08/08 13:44:38;;;;;;;4.38;0.93;;;24.60;58.80;;;;;;5093682;28;20085;-73
2023/08/08 13:47:04;;;;;;;0.70;0.52;;;24.70;60.50;;;;;;5093379;28;20048;-73
2023/08/08 13:49:30;;;;;;;1.52;0.93;;;24.70;58.80;;;;;;5093446;28;20020;-72
2023/08/08 13:51:56;;;;;;;2.70;0.40;;;24.70;58.80;;;;;;5093423;28;20024;-73
2023/08/08 13:54:22;;;;;;;3.53;0.50;;;24.70;57.90;;;;;;5093615;28;20032;-72
2023/08/08 13:56:47;;;;;;;3.28;0.50;;;24.70;59.00;;;;;;5093546;28;20027;-72
2023/08/08 13:59:14;;;;;;;0.50;0.40;;;24.70;59.70;;;;;;5093683;28;20031;-73
2023/08/08 14:01:39;;;;;;;4.72;0.60;;;24.80;60.00;;;;;;5093563;28;20469;-72
2023/08/08 14:04:05;;;;;;;3.08;1.08;;;24.80;60.20;;;;;;5093095;28;20024;-72
2023/08/08 14:06:31;;;;;;;5.90;0.73;;;24.70;59.60;;;;;;5091894;28;20031;-74
2023/08/08 14:08:57;;;;;;;6.18;0.75;;;24.70;60.40;;;;;;5093233;28;20099;-74
2023/08/08 14:11:23;;;;;;;2.72;0.50;;;24.70;63.00;;;;;;5093461;28;20030;-74
2023/08/08 14:13:49;;;;;;;1.77;0.70;;;24.80;59.30;;;;;;5093215;28;20543;-74
2023/08/08 14:16:14;;;;;;;4.00;3.08;;;24.80;60.90;;;;;;5092964;28;20017;-74
2023/08/08 14:18:40;;;;;;;1.65;0.50;;;24.80;61.40;;;;;;5093049;28;20036;-73
2023/08/08 14:21:06;;;;;;;2.75;1.33;;;24.90;61.80;;;;;;5093368;28;20020;-75
2023/08/08 14:23:32;;;;;;;1.15;0.60;;;24.90;63.70;;;;;;5093344;28;20028;-75
2023/08/08 14:25:58;;;;;;;4.18;0.60;;;24.90;61.10;;;;;;5092625;28;20042;-74
2023/08/08 14:28:23;;;;;;;1.10;0.50;;;24.90;60.60;;;;;;5093001;28;20035;-73
2023/08/08 14:30:49;;;;;;;4.50;3.38;;;24.90;58.30;;;;;;5093922;28;20024;-75
2023/08/08 14:33:16;;;;;;;1.35;0.60;;;24.90;59.10;;;;;;5093620;28;20056;-74
2023/08/08 14:35:43;;;;;;;1.02;0.73;;;24.90;59.50;;;;;;5072376;23;20087;-75
2023/08/08 14:38:09;;;;;;;4.20;0.70;;;24.90;59.60;;;;;;5053634;28;20032;-75
2023/08/08 14:48:46;;;;;;;15.35;8.30;;;24.80;59.80;;;;;;5031334;28;20115;-75
2023/08/08 15:00:52;;;;;;;0.90;0.50;;;24.70;60.70;;;;;;4996903;28;20037;-78
2023/08/08 15:04:09;;;;;;;;;;;;;;;;;;;;;